Weather at Kiffa Airport

Public forecast

Using degrees Celsius for public forecast. Weather courtesy of forecast.io.

Closest aviation weather report (METAR) to Kiffa Airport

Report is more than 6 hours old.

Closest report is Ouro Sogui Airport, 125.7 nm (232.8 km) WSW.

2022/11/14 15:00 (retrieved 2 years ago)

GOSM 141500Z 28002KT CAVOK 37/15 Q1010

Closest aviation forecast (TAF) to Kiffa Airport

Forecast is more than 12 hours old.

Closest forecast is Nouakchott–Oumtounsy International Airport, 281.0 nm (520.5 km) WNW.

2023/02/22 18:00 (retrieved 1 year ago)

TAF GQNO 221700Z 2218/2324 35014KT 8000 NSC